Time;durP1;ratioP1;P1;durP2;ratioP2;P2;SDS_P1;SDS_P2;PMS_P1;PMS_P2;Temp;Humidity;BMP_temperature;BMP_pressure;BME280_temperature;BME280_humidity;BME280_pressure;Samples;Min_cycle;Max_cycle;Signal;HPM_P1;HPM_P2
2020/12/22 00:01:42;;;;;;;20.95;13.57;;;;;;;5.30;100.00;96612.47;5022039;28;20068;-50
2020/12/22 00:04:10;;;;;;;23.88;13.15;;;;;;;5.16;100.00;96607.34;4987035;28;20053;-47
2020/12/22 00:06:37;;;;;;;19.02;13.43;;;;;;;5.23;100.00;96606.84;5008002;28;20041;-48
2020/12/22 00:09:04;;;;;;;18.80;12.32;;;;;;;5.47;100.00;96601.66;4990600;28;20470;-47
2020/12/22 00:11:32;;;;;;;18.95;11.98;;;;;;;5.67;100.00;96601.97;5024823;28;20141;-47
2020/12/22 00:13:59;;;;;;;18.08;11.70;;;;;;;5.80;100.00;96599.31;5025836;28;20136;-47
2020/12/22 00:16:33;;;;;;;16.33;11.32;;;;;;;6.00;100.00;96598.72;4993174;28;20064;-51
2020/12/22 00:19:00;;;;;;;16.25;10.52;;;;;;;6.11;100.00;96592.69;5019892;28;20069;-52
2020/12/22 00:21:30;;;;;;;17.08;11.10;;;;;;;6.09;100.00;96602.44;4975618;28;20034;-48
2020/12/22 00:23:57;;;;;;;20.35;10.23;;;;;;;6.10;100.00;96597.09;5028844;28;20095;-46
2020/12/22 00:26:24;;;;;;;16.50;10.05;;;;;;;5.89;100.00;96602.09;5000431;28;20049;-52
2020/12/22 00:28:51;;;;;;;17.73;10.57;;;;;;;5.92;100.00;96601.91;5025766;28;20116;-47
2020/12/22 00:31:19;;;;;;;18.20;10.10;;;;;;;5.90;100.00;96601.16;4987101;28;20038;-51
2020/12/22 00:33:47;;;;;;;19.75;10.10;;;;;;;5.93;100.00;96600.13;5028036;28;20434;-47
2020/12/22 00:36:13;;;;;;;14.20;8.73;;;;;;;6.06;100.00;96608.75;4983165;28;20051;-48
2020/12/22 00:38:43;;;;;;;13.80;8.43;;;;;;;6.15;100.00;96608.06;5028002;28;20049;-48
2020/12/22 00:41:12;;;;;;;11.82;7.85;;;;;;;6.20;100.00;96602.50;4994520;28;20499;-47
2020/12/22 00:43:41;;;;;;;10.95;7.07;;;;;;;6.30;100.00;96608.72;5018704;28;20111;-46
2020/12/22 00:46:07;;;;;;;13.43;7.22;;;;;;;6.35;100.00;96609.19;4984646;28;20038;-49
2020/12/22 00:48:34;;;;;;;14.23;7.20;;;;;;;6.45;100.00;96617.19;5026064;28;20065;-52
2020/12/22 00:51:01;;;;;;;10.98;7.20;;;;;;;6.34;100.00;96612.78;4996731;28;20462;-48
2020/12/22 00:53:30;;;;;;;10.05;6.07;;;;;;;6.32;100.00;96612.03;5057415;28;20056;-47
2020/12/22 00:55:59;;;;;;;9.25;6.05;;;;;;;6.33;100.00;96608.50;5004392;28;20037;-52
2020/12/22 00:58:28;;;;;;;8.20;5.05;;;;;;;6.37;100.00;96604.69;5013577;28;20133;-49
2020/12/22 01:00:55;;;;;;;11.68;5.40;;;;;;;6.20;100.00;96612.13;4980288;28;20041;-47
2020/12/22 01:03:22;;;;;;;8.55;5.35;;;;;;;6.32;100.00;96590.25;5018653;28;20043;-49
2020/12/22 01:05:49;;;;;;;9.15;4.90;;;;;;;6.26;100.00;96611.66;5010082;28;20064;-46
2020/12/22 01:08:16;;;;;;;8.35;5.10;;;;;;;6.30;100.00;96606.09;4979302;28;20137;-49
2020/12/22 01:10:43;;;;;;;9.52;5.47;;;;;;;6.40;100.00;96611.47;5012512;28;20046;-50
2020/12/22 01:13:11;;;;;;;7.53;4.78;;;;;;;6.40;100.00;96603.59;4978445;28;20080;-48
2020/12/22 01:15:38;;;;;;;11.85;6.30;;;;;;;6.21;100.00;96612.00;5009991;28;20047;-49
2020/12/22 01:18:05;;;;;;;10.52;5.50;;;;;;;6.20;100.00;96610.34;4990761;28;20053;-51
2020/12/22 01:20:32;;;;;;;10.50;7.15;;;;;;;6.31;100.00;96612.16;5026529;28;20483;-48
2020/12/22 01:22:59;;;;;;;11.68;7.45;;;;;;;6.18;100.00;96605.22;4991742;28;20053;-51
2020/12/22 01:25:26;;;;;;;9.50;5.57;;;;;;;6.26;100.00;96612.47;5026017;28;20486;-49
2020/12/22 01:27:55;;;;;;;8.63;5.35;;;;;;;6.31;100.00;96613.00;4988996;28;20132;-49
2020/12/22 01:30:23;;;;;;;12.70;6.88;;;;;;;6.41;100.00;96608.75;5023640;28;20184;-47
2020/12/22 01:32:51;;;;;;;13.82;8.20;;;;;;;6.33;100.00;96605.88;4973454;28;20291;-53
2020/12/22 01:35:18;;;;;;;11.27;6.80;;;;;;;6.35;100.00;96608.34;5024043;28;20045;-50
2020/12/22 01:37:45;;;;;;;13.40;8.60;;;;;;;6.34;100.00;96604.91;4973073;28;20385;-50
2020/12/22 01:40:12;;;;;;;12.75;7.28;;;;;;;6.33;100.00;96597.16;5016179;28;20051;-51
2020/12/22 01:42:42;;;;;;;10.38;6.50;;;;;;;6.40;100.00;96595.75;4986725;28;20092;-49
2020/12/22 01:45:10;;;;;;;10.07;6.45;;;;;;;6.41;100.00;96593.03;5011522;28;20159;-48
2020/12/22 01:47:42;;;;;;;12.70;6.15;;;;;;;6.42;100.00;96592.06;5010672;28;20121;-49
2020/12/22 01:50:09;;;;;;;9.10;6.25;;;;;;;6.51;100.00;96582.69;5017590;28;20459;-50
2020/12/22 01:52:36;;;;;;;10.15;5.70;;;;;;;6.51;100.00;96584.47;5016314;28;20471;-47
2020/12/22 01:55:03;;;;;;;8.60;5.43;;;;;;;6.52;100.00;96578.28;4973945;28;20106;-52
2020/12/22 01:57:30;;;;;;;7.47;5.10;;;;;;;6.66;100.00;96580.69;5007929;28;20412;-48
2020/12/22 01:59:57;;;;;;;9.23;4.90;;;;;;;6.66;100.00;96588.53;4985995;28;20053;-52
2020/12/22 02:02:24;;;;;;;6.38;4.18;;;;;;;6.65;100.00;96585.09;5010818;28;20084;-53
2020/12/22 02:04:52;;;;;;;6.68;4.22;;;;;;;6.69;100.00;96583.06;4990133;28;20073;-52
2020/12/22 02:07:20;;;;;;;6.82;4.55;;;;;;;6.79;100.00;96580.56;5029517;28;20045;-48
2020/12/22 02:09:49;;;;;;;6.97;4.43;;;;;;;6.78;100.00;96579.75;4998196;28;20041;-48
2020/12/22 02:12:17;;;;;;;7.20;4.93;;;;;;;6.84;100.00;96578.41;5026442;28;20044;-48
2020/12/22 02:14:44;;;;;;;6.57;4.68;;;;;;;6.95;100.00;96575.81;4970655;28;20120;-48
2020/12/22 02:17:11;;;;;;;6.85;4.60;;;;;;;7.05;100.00;96573.28;5026136;28;20199;-47
2020/12/22 02:19:38;;;;;;;9.93;4.95;;;;;;;7.03;100.00;96557.69;4980421;28;20133;-48
2020/12/22 02:22:06;;;;;;;8.95;5.47;;;;;;;7.15;100.00;96550.63;5021141;28;20480;-50
2020/12/22 02:24:33;;;;;;;7.82;5.32;;;;;;;7.04;100.00;96556.72;4980916;28;20500;-57
2020/12/22 02:27:01;;;;;;;10.20;4.80;;;;;;;7.03;100.00;96555.06;5010036;28;20054;-47
2020/12/22 02:29:30;;;;;;;7.03;4.65;;;;;;;7.09;100.00;96551.97;4990985;28;20046;-47
2020/12/22 02:31:58;;;;;;;7.57;4.78;;;;;;;7.21;100.00;96544.09;5015027;28;20076;-50
2020/12/22 02:34:25;;;;;;;9.95;5.97;;;;;;;7.20;100.00;96543.25;5013381;28;20485;-53
2020/12/22 02:36:52;;;;;;;10.18;6.18;;;;;;;7.28;100.00;96545.25;4980992;28;20136;-49
2020/12/22 02:39:20;;;;;;;7.47;5.18;;;;;;;7.10;100.00;96551.00;5027247;28;20500;-47
2020/12/22 02:41:47;;;;;;;9.50;5.38;;;;;;;7.08;100.00;96544.22;4981323;28;20445;-47
2020/12/22 02:44:14;;;;;;;9.52;5.53;;;;;;;7.20;100.00;96545.06;5024123;28;20459;-49
2020/12/22 02:46:41;;;;;;;8.77;5.93;;;;;;;7.23;100.00;96543.00;4996377;28;20123;-47
2020/12/22 02:49:07;;;;;;;8.07;5.47;;;;;;;7.28;100.00;96553.13;5028457;28;20048;-49
2020/12/22 02:51:34;;;;;;;7.35;5.10;;;;;;;7.30;100.00;96551.22;4977753;28;20038;-51
2020/12/22 02:54:01;;;;;;;8.35;5.35;;;;;;;7.20;100.00;96561.63;5007552;28;20042;-48
2020/12/22 02:56:30;;;;;;;9.98;6.32;;;;;;;7.22;100.00;96551.00;4972906;28;20117;-49
2020/12/22 02:58:57;;;;;;;9.13;5.47;;;;;;;7.18;100.00;96549.56;5024370;28;20041;-52
2020/12/22 03:01:24;;;;;;;9.23;5.82;;;;;;;7.14;100.00;96539.31;4992404;28;20600;-49
2020/12/22 03:03:51;;;;;;;9.80;5.97;;;;;;;7.21;100.00;96539.66;5022547;28;20041;-52
2020/12/22 03:06:18;;;;;;;8.43;5.60;;;;;;;7.22;100.00;96533.47;4996794;28;20071;-52
2020/12/22 03:08:45;;;;;;;8.25;5.57;;;;;;;7.22;100.00;96533.47;5022200;28;20049;-49
2020/12/22 03:11:12;;;;;;;10.63;5.75;;;;;;;7.24;100.00;96528.09;4987413;28;22744;-50
2020/12/22 03:13:40;;;;;;;10.75;6.13;;;;;;;7.21;100.00;96537.03;5016336;28;20127;-51
2020/12/22 03:16:07;;;;;;;11.00;6.10;;;;;;;7.23;100.00;96532.53;4996177;28;20048;-50
2020/12/22 03:18:34;;;;;;;11.70;6.28;;;;;;;7.32;100.00;96552.75;5019244;28;20393;-48
2020/12/22 03:21:01;;;;;;;9.93;6.07;;;;;;;7.16;100.00;96554.94;5030990;28;20042;-48
2020/12/22 03:23:28;;;;;;;10.02;6.03;;;;;;;7.18;100.00;96562.69;5000849;28;20094;-49
2020/12/22 03:25:55;;;;;;;8.00;5.25;;;;;;;7.08;100.00;96568.63;5025366;28;20046;-51
2020/12/22 03:28:22;;;;;;;10.10;5.85;;;;;;;7.17;100.00;96563.66;4971614;28;20120;-53
2020/12/22 03:30:49;;;;;;;11.65;6.25;;;;;;;7.25;100.00;96569.94;5015068;28;20087;-51
2020/12/22 03:33:17;;;;;;;12.93;6.88;;;;;;;7.21;100.00;96555.41;4992174;28;20730;-53
2020/12/22 03:35:44;;;;;;;12.13;6.75;;;;;;;7.19;100.00;96559.97;5001627;28;20038;-49
2020/12/22 03:38:11;;;;;;;12.07;7.05;;;;;;;7.22;100.00;96556.22;4993939;28;20057;-50
2020/12/22 03:40:38;;;;;;;9.65;6.10;;;;;;;7.20;100.00;96553.75;5025290;28;20474;-52
2020/12/22 03:43:04;;;;;;;12.95;6.63;;;;;;;7.20;100.00;96552.91;4984896;28;20566;-48
2020/12/22 03:45:32;;;;;;;9.07;5.80;;;;;;;7.13;100.00;96553.41;5027398;28;20500;-47
2020/12/22 03:47:59;;;;;;;9.05;5.65;;;;;;;7.12;100.00;96543.00;4994926;28;20075;-47
2020/12/22 03:50:26;;;;;;;10.02;5.60;;;;;;;7.27;100.00;96538.34;5007864;28;20404;-46
2020/12/22 03:52:53;;;;;;;9.07;4.93;;;;;;;7.36;100.00;96533.22;4977232;28;20049;-48
2020/12/22 03:55:20;;;;;;;6.85;4.47;;;;;;;7.43;100.00;96530.06;5006012;28;20073;-49
2020/12/22 03:57:47;;;;;;;7.05;4.72;;;;;;;7.50;100.00;96529.47;4975818;28;20042;-47
2020/12/22 04:00:15;;;;;;;6.82;4.22;;;;;;;7.56;100.00;96538.63;5008450;28;20092;-47
2020/12/22 04:05:34;;;;;;;6.97;4.70;;;;;;;7.62;100.00;96532.91;5006678;28;20149;-49
2020/12/22 04:08:01;;;;;;;7.57;5.20;;;;;;;7.79;100.00;96536.78;5024470;28;20053;-47
2020/12/22 04:10:28;;;;;;;6.88;5.05;;;;;;;7.83;100.00;96533.75;4992902;28;20049;-50
2020/12/22 04:12:55;;;;;;;6.43;4.57;;;;;;;7.92;100.00;96541.84;5025120;28;20047;-53
2020/12/22 04:15:22;;;;;;;8.43;4.82;;;;;;;7.96;100.00;96535.38;4988544;28;20087;-48
2020/12/22 04:17:49;;;;;;;7.45;5.00;;;;;;;8.06;100.00;96528.41;5009671;28;20131;-50
2020/12/22 04:20:16;;;;;;;7.10;4.90;;;;;;;8.02;100.00;96530.47;4974363;28;20042;-50
2020/12/22 04:22:44;;;;;;;7.50;4.68;;;;;;;8.03;100.00;96524.25;5019980;28;20045;-51
2020/12/22 04:25:12;;;;;;;6.95;4.70;;;;;;;8.14;100.00;96515.47;4998015;28;20140;-51
2020/12/22 04:27:39;;;;;;;6.00;3.30;;;;;;;8.38;100.00;96523.13;5025498;28;20042;-46
2020/12/22 04:30:06;;;;;;;4.72;3.30;;;;;;;8.44;100.00;96527.88;4988819;28;20049;-55
2020/12/22 04:32:33;;;;;;;5.38;2.70;;;;;;;8.64;100.00;96534.06;5028287;28;20475;-47
2020/12/22 04:35:00;;;;;;;3.38;2.00;;;;;;;8.79;100.00;96522.22;4994340;28;20455;-55
2020/12/22 04:37:27;;;;;;;4.93;2.50;;;;;;;8.97;100.00;96538.19;5016582;28;20418;-51
2020/12/22 04:39:55;;;;;;;3.92;2.10;;;;;;;9.04;100.00;96525.34;4998055;28;20519;-50
2020/12/22 04:42:22;;;;;;;5.93;2.47;;;;;;;9.10;100.00;96516.94;5025568;28;20467;-52
2020/12/22 04:44:50;;;;;;;4.32;2.10;;;;;;;9.27;100.00;96516.28;4982660;28;23388;-53
2020/12/22 04:47:17;;;;;;;3.13;2.33;;;;;;;9.31;100.00;96508.94;5024091;28;20120;-52
2020/12/22 04:49:47;;;;;;;4.07;2.15;;;;;;;9.28;100.00;96517.94;5002617;28;20049;-51
2020/12/22 04:52:14;;;;;;;2.85;1.90;;;;;;;9.45;100.00;96513.81;5017767;28;20061;-52
2020/12/22 04:54:41;;;;;;;3.20;1.98;;;;;;;9.55;100.00;96510.38;5024961;28;20049;-51
2020/12/22 04:57:08;;;;;;;2.80;1.60;;;;;;;9.48;100.00;96512.72;4997020;28;20416;-52
2020/12/22 04:59:37;;;;;;;2.78;1.40;;;;;;;9.63;100.00;96506.06;5007894;28;20046;-54
2020/12/22 05:02:06;;;;;;;3.10;1.58;;;;;;;9.60;100.00;96506.38;4985669;28;20518;-49
2020/12/22 05:04:34;;;;;;;1.70;1.00;;;;;;;9.69;100.00;96502.91;5027470;28;20064;-53
2020/12/22 05:07:01;;;;;;;1.67;1.10;;;;;;;9.72;100.00;96513.16;4987268;28;20098;-53
2020/12/22 05:09:28;;;;;;;1.85;1.10;;;;;;;9.78;100.00;96522.31;5022390;28;20080;-52
2020/12/22 05:11:55;;;;;;;1.42;0.88;;;;;;;9.95;100.00;96529.53;4976956;28;20077;-49
2020/12/22 05:14:25;;;;;;;1.40;0.70;;;;;;;9.93;100.00;96528.81;5024117;28;20451;-47
2020/12/22 05:16:52;;;;;;;4.28;0.85;;;;;;;10.03;100.00;96523.56;4990627;28;20061;-52
2020/12/22 05:19:19;;;;;;;1.30;0.68;;;;;;;10.08;100.00;96533.66;5015530;28;20125;-48
2020/12/22 05:21:47;;;;;;;3.33;0.70;;;;;;;10.05;100.00;96526.03;4977620;28;20104;-49
2020/12/22 05:24:14;;;;;;;0.70;0.50;;;;;;;10.22;100.00;96517.44;5023504;28;20050;-47
2020/12/22 05:26:42;;;;;;;1.02;0.63;;;;;;;10.23;100.00;96514.66;4987214;28;20202;-48
2020/12/22 05:29:10;;;;;;;0.70;0.57;;;;;;;10.31;100.00;96503.44;5026989;28;20037;-50
2020/12/22 05:31:46;;;;;;;0.60;0.50;;;;;;;10.24;100.00;96507.59;4994130;28;20053;-54
2020/12/22 05:34:14;;;;;;;1.10;0.60;;;;;;;10.38;100.00;96503.69;5021694;28;20100;-54
2020/12/22 05:36:41;;;;;;;0.30;0.30;;;;;;;10.60;100.00;96499.91;4981561;28;20456;-50
2020/12/22 05:39:10;;;;;;;0.38;0.30;;;;;;;10.56;100.00;96501.16;5005079;28;20038;-48
2020/12/22 05:41:37;;;;;;;0.40;0.38;;;;;;;10.59;100.00;96499.06;5026751;28;20066;-48
2020/12/22 05:44:04;;;;;;;0.28;0.20;;;;;;;10.73;100.00;96518.88;4984391;28;20077;-49
2020/12/22 05:46:32;;;;;;;0.30;0.30;;;;;;;10.72;100.00;96511.09;5032922;28;20080;-52
2020/12/22 05:49:01;;;;;;;0.30;0.30;;;;;;;10.69;100.00;96502.50;4983431;28;20037;-50
2020/12/22 05:51:37;;;;;;;3.25;0.40;;;;;;;10.67;100.00;96517.66;5011854;28;20042;-52
2020/12/22 05:54:05;;;;;;;0.45;0.25;;;;;;;10.79;100.00;96514.84;4980542;28;20056;-49
2020/12/22 05:56:33;;;;;;;0.30;0.28;;;;;;;10.81;100.00;96524.28;5001593;28;20516;-52
2020/12/22 05:59:00;;;;;;;0.47;0.30;;;;;;;10.80;100.00;96527.03;4991752;28;20500;-47
2020/12/22 06:01:31;;;;;;;0.20;0.20;;;;;;;10.82;100.00;96522.47;5026358;28;20127;-48
2020/12/22 06:03:59;;;;;;;1.17;0.52;;;;;;;10.78;100.00;96535.09;4981696;28;20041;-49
2020/12/22 06:06:28;;;;;;;1.13;0.40;;;;;;;10.86;100.00;96526.47;5003396;28;20041;-47
2020/12/22 06:08:55;;;;;;;0.47;0.22;;;;;;;10.73;100.00;96524.13;4997511;28;20067;-49
2020/12/22 06:11:22;;;;;;;0.73;0.30;;;;;;;10.84;100.00;96513.44;5021893;28;20073;-50
2020/12/22 06:13:50;;;;;;;0.60;0.28;;;;;;;10.90;100.00;96507.56;4972612;28;20564;-48
2020/12/22 06:16:18;;;;;;;0.88;0.30;;;;;;;10.84;100.00;96513.44;5012541;28;20050;-47
2020/12/22 06:18:47;;;;;;;0.65;0.35;;;;;;;10.93;100.00;96495.88;4980653;28;20041;-50
2020/12/22 06:21:18;;;;;;;0.47;0.20;;;;;;;10.92;100.00;96504.78;5018350;28;20042;-57
2020/12/22 06:23:46;;;;;;;0.20;0.20;;;;;;;10.79;100.00;96514.84;4969680;28;20527;-52
2020/12/22 06:26:13;;;;;;;0.70;0.20;;;;;;;10.71;100.00;96514.72;5002137;28;20049;-50
2020/12/22 06:28:40;;;;;;;1.15;0.50;;;;;;;10.73;100.00;96516.22;4971564;28;20052;-49
2020/12/22 06:31:18;;;;;;;0.38;0.15;;;;;;;10.80;100.00;96522.59;5016019;28;20045;-50
2020/12/22 06:33:46;;;;;;;0.57;0.30;;;;;;;10.90;100.00;96504.91;5013356;28;20046;-57
2020/12/22 06:36:14;;;;;;;0.65;0.20;;;;;;;10.87;100.00;96509.66;5008596;28;20056;-49
2020/12/22 06:38:46;;;;;;;0.60;0.20;;;;;;;10.93;100.00;96503.78;5009413;28;20049;-54
2020/12/22 06:41:25;;;;;;;2.05;0.20;;;;;;;10.97;100.00;96509.63;4983316;28;20052;-47
2020/12/22 06:43:55;;;;;;;0.50;0.40;;;;;;;10.90;100.00;96523.38;5021849;28;20512;-49
2020/12/22 06:46:38;;;;;;;0.30;0.30;;;;;;;10.97;100.00;96509.63;4992815;28;20073;-50
2020/12/22 06:49:06;;;;;;;0.47;0.30;;;;;;;10.97;100.00;96505.16;5017389;28;20096;-50
2020/12/22 06:51:35;;;;;;;1.23;0.40;;;;;;;11.03;100.00;96515.13;4982701;28;20072;-51
2020/12/22 06:54:04;;;;;;;0.60;0.40;;;;;;;11.16;99.36;96533.28;5026115;28;20042;-53
2020/12/22 06:56:41;;;;;;;0.43;0.30;;;;;;;11.07;100.00;96534.16;4994248;28;20034;-52
2020/12/22 06:59:11;;;;;;;0.35;0.20;;;;;;;11.08;100.00;96531.38;5031057;28;20040;-54
2020/12/22 07:01:39;;;;;;;0.60;0.30;;;;;;;11.05;100.00;96526.41;4982244;28;20073;-49
2020/12/22 07:04:20;;;;;;;0.68;0.60;;;;;;;11.16;99.56;96526.19;5013259;28;20054;-49
2020/12/22 07:06:56;;;;;;;;;;;;;;;11.22;98.57;96526.56;4978574;28;20049;-46
2020/12/22 07:09:26;;;;;;;4.45;3.22;;;;;;;11.05;100.00;96538.75;5023889;28;19921;-50
2020/12/22 07:11:54;;;;;;;2.47;1.27;;;;;;;11.11;100.00;96533.72;4999549;28;20079;-48
2020/12/22 07:14:23;;;;;;;0.73;0.30;;;;;;;11.24;98.42;96511.44;5002586;28;20856;-47
2020/12/22 07:16:55;;;;;;;2.75;0.35;;;;;;;11.25;98.76;96531.56;4982967;28;20123;-49
2020/12/22 07:19:28;;;;;;;0.73;0.50;;;;;;;11.27;98.51;96534.91;5016798;28;20069;-52
2020/12/22 07:21:56;;;;;;;1.70;0.73;;;;;;;11.32;97.82;96551.97;4966622;28;20416;-49
2020/12/22 07:24:25;;;;;;;0.75;0.38;;;;;;;11.36;97.41;96526.94;5024432;28;20042;-50
2020/12/22 07:26:52;;;;;;;0.28;0.20;;;;;;;11.35;97.45;96540.25;4970239;28;20462;-47
2020/12/22 07:29:19;;;;;;;1.85;0.30;;;;;;;11.45;97.30;96532.28;5023014;28;20108;-47
2020/12/22 07:31:47;;;;;;;0.63;0.25;;;;;;;11.43;97.09;96536.91;4993028;28;20478;-51
2020/12/22 07:34:18;;;;;;;0.80;0.30;;;;;;;11.48;96.31;96532.00;5025281;28;20061;-51
2020/12/22 07:36:46;;;;;;;0.93;0.20;;;;;;;11.52;95.86;96526.25;4985795;28;20128;-48
2020/12/22 07:39:18;;;;;;;0.45;0.17;;;;;;;11.51;95.93;96527.25;5023902;28;20487;-49
2020/12/22 07:41:47;;;;;;;0.40;0.20;;;;;;;11.52;95.44;96538.63;4985790;28;20069;-55
2020/12/22 07:44:15;;;;;;;0.25;0.20;;;;;;;11.54;95.83;96534.88;5028497;28;20532;-56
2020/12/22 07:46:44;;;;;;;0.57;0.30;;;;;;;11.60;95.54;96531.66;4988692;28;20042;-54
2020/12/22 07:49:13;;;;;;;0.30;0.30;;;;;;;11.70;94.10;96518.38;5021757;28;20545;-54
2020/12/22 07:51:44;;;;;;;0.38;0.15;;;;;;;11.82;93.10;96516.34;5022313;28;20054;-51
2020/12/22 07:54:12;;;;;;;0.50;0.40;;;;;;;11.92;92.28;96532.97;5005813;28;20512;-49
2020/12/22 07:56:40;;;;;;;1.45;0.30;;;;;;;11.96;92.50;96526.41;5027487;28;20120;-50
2020/12/22 07:59:09;;;;;;;0.22;0.22;;;;;;;11.99;92.02;96531.38;4989328;28;21404;-47
2020/12/22 08:01:40;;;;;;;0.47;0.20;;;;;;;12.05;91.03;96524.69;5015463;28;20069;-52
2020/12/22 08:04:17;;;;;;;0.20;0.10;;;;;;;11.98;92.51;96531.56;4968742;28;20103;-49
2020/12/22 08:06:53;;;;;;;5.22;0.47;;;;;;;12.02;92.16;96544.31;5024700;28;20046;-50
2020/12/22 08:09:25;;;;;;;0.75;0.10;;;;;;;11.96;92.54;96533.50;4997434;28;20056;-49
2020/12/22 08:11:54;;;;;;;0.30;0.10;;;;;;;12.11;91.09;96540.75;5029006;28;20049;-52
2020/12/22 08:14:22;;;;;;;0.65;0.30;;;;;;;12.05;91.82;96537.88;4994156;28;20091;-48
2020/12/22 08:16:51;;;;;;;0.32;0.20;;;;;;;12.17;91.30;96541.13;5025710;28;20518;-51
2020/12/22 08:19:18;;;;;;;0.45;0.20;;;;;;;12.19;90.78;96553.22;4982756;28;20038;-52
2020/12/22 08:21:46;;;;;;;1.48;0.28;;;;;;;12.27;90.19;96533.94;5003136;28;20590;-47
2020/12/22 08:24:16;;;;;;;0.80;0.30;;;;;;;12.24;90.63;96542.16;4959517;28;20082;-55
2020/12/22 08:26:45;;;;;;;0.60;0.30;;;;;;;12.41;89.67;96537.84;5018761;28;20542;-49
2020/12/22 08:29:17;;;;;;;0.30;0.20;;;;;;;12.39;89.90;96545.94;4985206;28;20531;-52
2020/12/22 08:31:45;;;;;;;1.10;0.20;;;;;;;12.42;89.57;96544.78;5021231;28;20045;-48
2020/12/22 08:34:15;;;;;;;0.20;0.20;;;;;;;12.17;91.32;96563.09;4990372;28;20053;-55
2020/12/22 08:36:42;;;;;;;0.95;0.22;;;;;;;12.12;92.50;96562.72;5016384;28;20037;-49
2020/12/22 08:39:18;;;;;;;0.28;0.10;;;;;;;12.18;90.81;96553.34;4989340;28;20061;-49
2020/12/22 08:41:47;;;;;;;0.22;0.20;;;;;;;12.18;91.29;96567.41;5027355;28;20424;-48
2020/12/22 08:44:15;;;;;;;0.10;0.10;;;;;;;12.24;90.66;96558.03;4985293;28;20057;-53
2020/12/22 08:46:43;;;;;;;0.30;0.22;;;;;;;12.24;90.56;96558.03;5009265;28;20500;-52
2020/12/22 08:49:13;;;;;;;0.30;0.20;;;;;;;12.25;89.96;96557.03;4981463;28;20060;-54
2020/12/22 08:51:43;;;;;;;1.30;0.40;;;;;;;12.39;88.16;96560.94;5024482;28;20047;-48
2020/12/22 08:54:10;;;;;;;0.65;0.20;;;;;;;12.46;88.26;96562.84;5016634;28;20048;-58
2020/12/22 08:56:37;;;;;;;0.30;0.20;;;;;;;12.49;87.35;96567.84;5004181;28;20627;-53
2020/12/22 08:59:06;;;;;;;0.57;0.22;;;;;;;12.50;88.89;96566.84;5023835;28;20091;-49
2020/12/22 09:01:43;;;;;;;0.25;0.20;;;;;;;12.44;87.15;96563.97;4987072;28;20045;-48
2020/12/22 09:04:12;;;;;;;0.88;0.30;;;;;;;12.47;87.26;96583.03;5016586;28;20100;-50
2020/12/22 09:06:43;;;;;;;0.17;0.10;;;;;;;12.32;89.38;96582.75;4966987;28;20077;-47
2020/12/22 09:09:16;;;;;;;0.20;0.20;;;;;;;12.43;88.08;96584.31;5003955;28;20081;-47
2020/12/22 09:11:46;;;;;;;0.30;0.17;;;;;;;12.51;87.04;96586.19;4975744;28;20042;-48
2020/12/22 09:14:16;;;;;;;0.30;0.20;;;;;;;12.55;87.71;96575.13;5005299;28;20523;-48
2020/12/22 09:16:51;;;;;;;0.40;0.20;;;;;;;12.63;86.82;96584.97;4975822;28;20045;-51
2020/12/22 09:19:20;;;;;;;0.20;0.10;;;;;;;12.61;86.92;96588.75;5014512;28;20458;-50
2020/12/22 09:21:47;;;;;;;0.20;0.17;;;;;;;12.59;87.75;96594.16;4991240;28;20333;-55
2020/12/22 09:24:19;;;;;;;0.30;0.25;;;;;;;12.63;87.32;96590.25;5022796;28;20474;-52
2020/12/22 09:26:57;;;;;;;2.17;0.20;;;;;;;12.53;87.55;96593.00;4983875;28;20073;-47
2020/12/22 09:29:26;;;;;;;0.28;0.10;;;;;;;12.65;86.35;96590.09;5009126;28;20042;-53
2020/12/22 09:31:53;;;;;;;0.20;0.10;;;;;;;12.66;87.20;96595.22;4990619;28;20144;-50
2020/12/22 09:34:21;;;;;;;0.20;0.10;;;;;;;12.71;85.74;96587.66;5016696;28;20064;-52
2020/12/22 09:36:56;;;;;;;0.30;0.20;;;;;;;12.80;85.80;96599.97;4972229;28;20073;-49
2020/12/22 09:39:24;;;;;;;1.17;0.20;;;;;;;12.76;85.43;96592.47;5022950;28;20038;-49
2020/12/22 09:41:52;;;;;;;0.40;0.20;;;;;;;12.73;85.71;96583.06;4990890;28;20128;-50
2020/12/22 09:44:19;;;;;;;0.10;0.10;;;;;;;12.74;85.78;96590.00;5006065;28;20056;-50
2020/12/22 09:46:47;;;;;;;0.52;0.28;;;;;;;12.90;84.74;96591.91;4963604;28;20510;-47
2020/12/22 09:49:14;;;;;;;0.57;0.28;;;;;;;12.93;85.69;96593.41;5042076;28;20140;-52
2020/12/22 09:51:42;;;;;;;0.40;0.20;;;;;;;12.91;84.71;96588.31;4990930;28;20049;-47
2020/12/22 09:54:16;;;;;;;0.38;0.20;;;;;;;12.96;83.15;96585.19;5056400;28;20045;-47
2020/12/22 09:56:44;;;;;;;0.80;0.10;;;;;;;12.97;84.32;96586.81;4974082;28;20388;-52
2020/12/22 10:00:19;;;;;;;1.33;0.20;;;;;;;12.93;85.19;96591.59;5004767;28;20040;-51
2020/12/22 10:02:46;;;;;;;0.60;0.30;;;;;;;12.86;86.19;96592.38;4997931;28;20557;-54
2020/12/22 10:05:13;;;;;;;0.30;0.20;;;;;;;12.89;84.51;96595.56;5022584;28;20112;-50
2020/12/22 10:07:41;;;;;;;0.45;0.22;;;;;;;12.81;85.43;96600.81;4979099;28;20776;-52
2020/12/22 10:10:09;;;;;;;0.17;0.10;;;;;;;12.80;84.88;96586.75;5026000;28;20141;-47
2020/12/22 10:12:36;;;;;;;0.30;0.20;;;;;;;12.87;85.00;96596.69;5025137;28;20041;-51
2020/12/22 10:15:03;;;;;;;0.70;0.20;;;;;;;12.74;86.40;96583.88;5030988;28;20045;-50
2020/12/22 10:17:31;;;;;;;1.25;0.10;;;;;;;12.71;86.34;96590.31;4999010;28;20159;-52
2020/12/22 10:19:59;;;;;;;0.35;0.30;;;;;;;12.75;84.50;96574.94;5053097;28;20060;-47
2020/12/22 10:22:29;;;;;;;0.28;0.20;;;;;;;12.64;85.42;96601.66;5017693;28;20041;-47
2020/12/22 10:24:57;;;;;;;0.77;0.32;;;;;;;12.64;86.69;96594.56;4967656;28;20419;-51
2020/12/22 10:27:24;;;;;;;0.52;0.30;;;;;;;12.52;87.23;96593.97;5009211;28;20038;-49
2020/12/22 10:29:51;;;;;;;0.30;0.17;;;;;;;12.44;87.72;96598.38;4995641;28;20057;-51
2020/12/22 10:32:18;;;;;;;1.38;0.30;;;;;;;12.45;87.40;96606.13;5008950;28;20589;-50
2020/12/22 10:34:45;;;;;;;0.63;0.20;;;;;;;12.50;86.48;96597.75;4994157;28;20041;-51
2020/12/22 10:37:12;;;;;;;1.17;0.30;;;;;;;12.52;86.65;96604.53;5020601;23;20050;-50
2020/12/22 10:39:40;;;;;;;0.30;0.20;;;;;;;12.54;85.98;96597.28;4963064;28;20115;-49
2020/12/22 10:42:07;;;;;;;0.20;0.20;;;;;;;12.64;85.10;96583.16;5009397;28;20077;-49
2020/12/22 10:44:34;;;;;;;0.60;0.30;;;;;;;12.58;86.13;96587.22;4961870;28;20058;-55
2020/12/22 10:47:01;;;;;;;0.35;0.20;;;;;;;12.66;85.45;96602.31;5005103;28;20495;-46
2020/12/22 10:49:28;;;;;;;0.22;0.20;;;;;;;12.71;86.28;96600.06;4971247;28;20417;-52
2020/12/22 10:51:55;;;;;;;0.82;0.30;;;;;;;12.73;84.66;96592.78;5006694;28;20050;-50
2020/12/22 10:54:23;;;;;;;0.40;0.30;;;;;;;12.72;86.12;96601.72;4969195;28;20046;-47
2020/12/22 10:56:53;;;;;;;0.68;0.47;;;;;;;12.69;85.42;96599.38;5009726;28;20113;-47
2020/12/22 10:59:21;;;;;;;1.65;0.40;;;;;;;12.74;85.47;96613.81;4968663;28;22859;-50
2020/12/22 11:01:50;;;;;;;0.70;0.30;;;;;;;12.64;87.28;96612.25;5000058;28;20516;-51
2020/12/22 11:04:17;;;;;;;0.55;0.25;;;;;;;12.67;85.27;96585.50;4974052;28;20054;-47
2020/12/22 11:06:49;;;;;;;2.15;0.43;;;;;;;12.68;86.04;96598.56;4999866;28;20052;-49
2020/12/22 11:09:16;;;;;;;0.60;0.20;;;;;;;12.70;85.30;96601.88;5004390;28;20085;-50
2020/12/22 11:11:46;;;;;;;0.60;0.30;;;;;;;12.72;85.83;96612.31;4979436;28;20044;-47
2020/12/22 11:14:13;;;;;;;0.28;0.20;;;;;;;12.76;87.77;96609.19;5004733;28;20112;-47
2020/12/22 11:16:41;;;;;;;0.20;0.20;;;;;;;12.53;90.98;96592.16;4971229;28;20125;-53
2020/12/22 11:19:08;;;;;;;0.40;0.28;;;;;;;12.44;93.95;96599.19;5003230;28;20046;-50
2020/12/22 11:21:35;;;;;;;0.50;0.28;;;;;;;12.33;95.26;96602.91;4966915;28;20050;-48
2020/12/22 11:24:02;;;;;;;1.48;0.30;;;;;;;12.52;94.24;96588.66;5005811;28;20504;-53
2020/12/22 11:26:29;;;;;;;0.30;0.20;;;;;;;12.77;91.87;96588.88;4970404;28;20137;-49
2020/12/22 11:28:56;;;;;;;0.43;0.30;;;;;;;12.85;91.59;96591.56;5001652;28;20085;-47
2020/12/22 11:31:23;;;;;;;1.05;0.30;;;;;;;12.67;90.52;96602.19;4968987;28;20101;-48
2020/12/22 11:33:51;;;;;;;0.38;0.20;;;;;;;12.75;91.35;96581.06;5003667;28;20046;-47
2020/12/22 11:36:18;;;;;;;1.17;0.22;;;;;;;12.71;91.46;96586.84;4958527;28;20039;-52
2020/12/22 11:38:46;;;;;;;0.10;0.10;;;;;;;12.75;91.00;96582.91;5006552;28;20744;-51
2020/12/22 11:41:20;;;;;;;0.35;0.20;;;;;;;12.81;89.70;96583.09;4960894;28;20060;-55